San Fernando, Trinidad and Tobago
Current Conditions -  °F | °C
As of 11:00 AM on Wednesday 22 Oct 2014 (Local Time) from TTPP Reporting Station
Few Clouds Few Clouds  
Wind Chill: 33°   Ceiling: Unl
Heat Index: 39°   Visibility: 6mi
Dew Point: 24°   Wind: 9mph
Humidity: 59%   Direction: 120°ESE
Pressure: 29.88"   Gusts: NA
Location:  10.25°N, 61.46°W
Report Text: TTPP 221500Z 12008KT 9999 FEW012TCU 33/24 Q1012 NOSIG
Loading
Personal Weather Stations






























Interactive Weather Map
Tropical Storm Tracking
New forecast layout! Learn more

10-Day Weather Forecast

Advertisements
Track Severe Weather on mobile